Petoskey, Michigan
Current Conditions -  °F | °C
As of 3:54 PM on Tuesday 25 Nov 2014 (Local Time) from KMGN Reporting Station
Overcast Overcast  
Wind Chill: 20°   Ceiling: 3900
Heat Index: 29°   Visibility: 10mi
Dew Point: 23°   Wind: 9mph
Humidity: 78%   Direction: 290°WNW
Pressure: 29.97"   Gusts: NA
Location:  45.38°N, 84.96°W
Report Text: KMGN 252054Z AUTO 29008KT 10SM SCT029 OVC039 M01/M05 A2997 RMK AO2 T10181052
Loading
Personal Weather Stations






























Interactive Weather Map New forecast layout! Learn more

10-Day Weather Forecast

Advertisements
Track Severe Weather on mobile